Keavy, Kentucky
Current Conditions -  °F | °C
As of 10:53 PM on Sunday 21 Dec 2014 (Local Time) from KLOZ Reporting Station
Overcast Overcast  
Wind Chill: 39°   Ceiling: 4600
Heat Index: 42°   Visibility: 10mi
Dew Point: 28°   Wind: 5mph
Humidity: 58%   Direction: 110°ESE
Pressure: 30.09"   Gusts: NA
Location:  37°N, 84.16°W
Report Text: KLOZ 220353Z AUTO 11004KT 10SM OVC046 06/M02 A3009 RMK AO2 SLP194 T00561022 $
Loading
Personal Weather Stations






























Interactive Weather Map New forecast layout! Learn more

10-Day Weather Forecast

Advertisements
Track Severe Weather on mobile